Time;durP1;ratioP1;P1;durP2;ratioP2;P2;SDS_P1;SDS_P2;PMS_P1;PMS_P2;Temp;Humidity;BMP_temperature;BMP_pressure;BME280_temperature;BME280_humidity;BME280_pressure;Samples;Min_cycle;Max_cycle;Signal;HPM_P1;HPM_P2
2023/09/13 00:00:17;;;;;;;23.92;19.48;;;;;;;19.39;100.00;100026.25;5113006;28;20419;-83
2023/09/13 00:02:44;;;;;;;32.17;21.45;;;;;;;19.42;100.00;100030.16;5115086;28;20027;-83
2023/09/13 00:05:09;;;;;;;28.45;20.58;;;;;;;19.39;100.00;100034.97;5115898;28;20016;-82
2023/09/13 00:07:35;;;;;;;27.83;20.75;;;;;;;19.37;100.00;100028.16;5114601;28;20114;-76
2023/09/13 00:10:02;;;;;;;29.08;20.38;;;;;;;19.35;100.00;100040.31;5114041;28;20102;-78
2023/09/13 00:12:30;;;;;;;26.40;20.50;;;;;;;19.31;100.00;100034.09;5115865;28;20027;-80
2023/09/13 00:14:56;;;;;;;28.95;20.50;;;;;;;19.27;100.00;100029.97;5115707;28;20031;-80
2023/09/13 00:17:23;;;;;;;30.65;22.58;;;;;;;19.24;100.00;100026.09;5115211;27;20023;-81
2023/09/13 00:19:50;;;;;;;29.38;22.90;;;;;;;19.22;100.00;100030.88;5114213;28;20080;-80
2023/09/13 00:22:16;;;;;;;29.83;21.60;;;;;;;19.24;100.00;100025.31;5115519;28;20036;-80
2023/09/13 00:24:42;;;;;;;31.00;21.23;;;;;;;19.20;100.00;100034.34;5113550;28;20034;-80
2023/09/13 00:27:08;;;;;;;30.10;22.80;;;;;;;19.18;100.00;100016.72;5115455;28;20028;-82
2023/09/13 00:29:35;;;;;;;30.27;21.98;;;;;;;19.21;100.00;100015.63;5115507;28;20062;-80
2023/09/13 00:32:01;;;;;;;29.98;22.65;;;;;;;19.20;100.00;100025.66;5115551;28;20490;-79
2023/09/13 00:34:26;;;;;;;32.10;21.98;;;;;;;19.19;100.00;100023.31;5113761;28;20038;-80
2023/09/13 00:36:52;;;;;;;28.05;21.10;;;;;;;19.16;100.00;100019.41;5113922;28;20032;-81
2023/09/13 00:39:18;;;;;;;33.78;22.80;;;;;;;19.12;100.00;100013.91;5113893;28;20031;-81
2023/09/13 00:41:43;;;;;;;28.05;22.23;;;;;;;19.11;100.00;100017.41;5114877;28;20415;-80
2023/09/13 00:44:10;;;;;;;34.58;22.17;;;;;;;19.08;100.00;100006.91;5114390;28;20048;-80
2023/09/13 00:46:36;;;;;;;29.88;22.58;;;;;;;19.11;100.00;100008.72;5114701;28;20115;-79
2023/09/13 00:49:03;;;;;;;33.70;22.60;;;;;;;19.11;100.00;100011.59;5113548;28;20031;-80
2023/09/13 00:51:37;;;;;;;28.50;22.45;;;;;;;19.14;100.00;100021.31;5113367;28;20077;-80
2023/09/13 00:54:12;;;;;;;30.00;21.98;;;;;;;19.09;100.00;100017.94;5114830;27;20118;-81
2023/09/13 00:56:39;;;;;;;30.23;22.38;;;;;;;19.06;100.00;100021.97;5115009;28;20123;-80
2023/09/13 00:59:06;;;;;;;29.95;22.10;;;;;;;19.07;100.00;100014.03;5114702;28;20038;-81
2023/09/13 01:01:32;;;;;;;30.88;21.48;;;;;;;19.07;100.00;100016.94;5113720;28;20114;-81
2023/09/13 01:03:59;;;;;;;25.88;21.27;;;;;;;19.01;100.00;100016.31;5114520;28;20372;-80
2023/09/13 01:06:33;;;;;;;30.70;23.38;;;;;;;19.03;100.00;100023.06;5113664;28;20042;-81
2023/09/13 01:09:03;;;;;;;31.40;22.58;;;;;;;18.95;100.00;100010.63;5114584;28;20358;-81
2023/09/13 01:11:29;;;;;;;26.95;22.67;;;;;;;18.96;100.00;100020.09;5114686;28;20035;-80
2023/09/13 01:13:56;;;;;;;33.95;22.42;;;;;;;18.98;100.00;100015.28;5114428;28;20030;-80
2023/09/13 01:16:51;;;;;;;29.23;21.48;;;;;;;18.98;100.00;100018.19;5113270;28;20133;-80
2023/09/13 01:19:35;;;;;;;32.13;23.15;;;;;;;18.95;100.00;100016.41;5111637;28;20491;-81
2023/09/13 01:22:18;;;;;;;28.63;21.48;;;;;;;18.94;100.00;100011.97;5114052;28;20027;-79
2023/09/13 01:25:11;;;;;;;30.02;22.52;;;;;;;18.93;100.00;100018.28;5111887;28;20032;-80
2023/09/13 01:28:03;;;;;;;34.60;22.90;;;;;;;18.91;100.00;100015.19;5113179;28;20050;-81
2023/09/13 01:30:29;;;;;;;32.45;21.95;;;;;;;18.87;100.00;100003.19;5112664;28;20384;-78
2023/09/13 01:33:16;;;;;;;31.08;22.55;;;;;;;18.78;100.00;100007.28;5111938;28;20031;-79
2023/09/13 01:35:59;;;;;;;33.15;23.80;;;;;;;18.66;100.00;99994.41;5111910;28;20039;-80
2023/09/13 01:38:27;;;;;;;35.72;23.05;;;;;;;18.62;100.00;99996.84;5112313;28;20035;-81
2023/09/13 01:41:16;;;;;;;34.00;23.73;;;;;;;18.55;100.00;100000.41;5095386;28;20139;-80
2023/09/13 01:43:42;;;;;;;29.08;22.45;;;;;;;18.54;100.00;100010.41;5110413;28;20039;-82
2023/09/13 01:46:08;;;;;;;31.67;23.58;;;;;;;18.52;100.00;100007.31;5110565;28;20091;-80
2023/09/13 01:48:35;;;;;;;33.70;23.70;;;;;;;18.48;100.00;100007.63;5093666;28;20032;-80
2023/09/13 01:51:02;;;;;;;31.75;23.13;;;;;;;18.43;100.00;100005.63;5093706;28;20100;-80
2023/09/13 01:53:30;;;;;;;34.72;24.77;;;;;;;18.39;100.00;99996.50;5110605;28;20019;-80
2023/09/13 01:55:56;;;;;;;29.80;24.05;;;;;;;18.38;100.00;100005.72;5094110;28;20028;-79
2023/09/13 01:58:22;;;;;;;38.38;26.42;;;;;;;18.34;100.00;100011.84;5112119;28;20095;-80
2023/09/13 02:00:50;;;;;;;37.63;25.58;;;;;;;18.32;100.00;100011.63;5114072;28;20055;-80
2023/09/13 02:03:17;;;;;;;36.40;25.92;;;;;;;18.29;100.00;100004.03;5112856;28;20022;-81
2023/09/13 02:05:42;;;;;;;41.33;26.58;;;;;;;18.23;100.00;99994.66;5114330;28;20034;-82
2023/09/13 02:08:22;;;;;;;35.17;25.63;;;;;;;18.28;100.00;100008.25;5112608;28;20465;-81
2023/09/13 02:10:49;;;;;;;36.95;26.08;;;;;;;18.27;100.00;100004.59;5113526;28;20020;-81
2023/09/13 02:13:15;;;;;;;37.70;24.98;;;;;;;18.33;100.00;100010.28;5114108;28;20035;-82
2023/09/13 02:15:42;;;;;;;33.15;25.95;;;;;;;18.35;100.00;99996.06;5114157;28;20032;-81
2023/09/13 02:18:07;;;;;;;37.45;25.58;;;;;;;18.33;100.00;99998.72;5112472;28;20472;-82
2023/09/13 02:20:34;;;;;;;33.35;26.10;;;;;;;18.35;100.00;99992.38;5113736;28;20031;-82
2023/09/13 02:23:00;;;;;;;34.10;25.63;;;;;;;18.29;100.00;99986.66;5078455;28;20024;-82
2023/09/13 02:25:26;;;;;;;36.40;26.73;;;;;;;18.36;100.00;99999.72;5113729;28;20016;-82
2023/09/13 02:27:53;;;;;;;35.17;26.48;;;;;;;18.38;100.00;100002.81;5114256;28;20184;-82
2023/09/13 02:30:18;;;;;;;36.17;25.80;;;;;;;18.19;100.00;99971.84;5095403;28;20387;-82
2023/09/13 02:32:46;;;;;;;38.78;27.05;;;;;;;18.31;100.00;100000.63;5112472;28;20080;-82
2023/09/13 02:35:14;;;;;;;36.75;26.05;;;;;;;18.24;100.00;99991.22;5113626;28;20404;-82
2023/09/13 02:37:40;;;;;;;35.88;27.23;;;;;;;18.29;100.00;100001.13;5113471;28;20104;-79
2023/09/13 02:40:09;;;;;;;40.28;29.75;;;;;;;18.29;100.00;99998.22;5113610;28;20473;-82
2023/09/13 02:42:37;;;;;;;38.22;26.45;;;;;;;18.30;100.00;100005.59;5116267;28;20048;-80
2023/09/13 02:45:04;;;;;;;47.33;27.65;;;;;;;18.23;100.00;100004.13;5117235;28;20461;-81
2023/09/13 02:47:31;;;;;;;43.30;29.13;;;;;;;18.25;100.00;100003.56;5116320;28;20483;-82
2023/09/13 02:49:58;;;;;;;43.97;29.15;;;;;;;18.22;100.00;99993.91;5117898;28;20020;-81
2023/09/13 02:52:45;;;;;;;40.95;28.70;;;;;;;18.26;100.00;99997.25;5116727;28;20032;-81
2023/09/13 02:55:12;;;;;;;37.55;25.67;;;;;;;18.24;100.00;99996.22;5116142;28;20106;-82
2023/09/13 02:57:46;;;;;;;33.92;25.27;;;;;;;18.24;100.00;99994.13;5115645;28;20028;-82
2023/09/13 03:00:12;;;;;;;34.67;25.63;;;;;;;18.23;100.00;99991.75;5116801;28;20092;-81
2023/09/13 03:02:39;;;;;;;38.45;25.88;;;;;;;18.22;100.00;99990.22;5116925;28;20031;-83
2023/09/13 03:05:05;;;;;;;33.58;25.30;;;;;;;18.12;100.00;99971.75;5115890;28;20098;-81
2023/09/13 03:07:30;;;;;;;32.55;24.73;;;;;;;18.15;100.00;99979.31;5117356;28;20077;-82
2023/09/13 03:09:59;;;;;;;32.63;25.52;;;;;;;18.12;100.00;99987.00;5115741;28;20024;-81
2023/09/13 03:12:26;;;;;;;37.13;27.58;;;;;;;18.05;100.00;99981.84;5116885;28;20535;-80
2023/09/13 03:14:56;;;;;;;35.15;25.85;;;;;;;17.93;100.00;99982.63;5115319;28;20028;-81
2023/09/13 03:17:23;;;;;;;38.90;26.40;;;;;;;17.76;100.00;99977.91;5115689;28;20039;-80
2023/09/13 03:19:49;;;;;;;33.28;24.95;;;;;;;17.66;100.00;99976.75;5116598;28;20468;-81
2023/09/13 03:22:15;;;;;;;36.55;27.23;;;;;;;17.62;100.00;99989.97;5116835;28;20035;-80
2023/09/13 03:24:42;;;;;;;42.30;29.02;;;;;;;17.54;100.00;99989.03;5116876;28;20028;-81
2023/09/13 03:27:09;;;;;;;40.60;28.88;;;;;;;17.57;100.00;99988.72;5116702;28;20055;-80
2023/09/13 03:29:35;;;;;;;34.22;26.33;;;;;;;17.62;100.00;99990.75;5116429;28;20031;-83
2023/09/13 03:32:04;;;;;;;36.25;28.42;;;;;;;17.67;100.00;99989.09;5115123;28;20046;-81
2023/09/13 03:34:29;;;;;;;39.00;28.38;;;;;;;17.67;100.00;99989.88;5115425;28;20042;-80
2023/09/13 03:36:57;;;;;;;42.03;28.80;;;;;;;17.67;100.00;99974.66;5116323;28;20035;-81
2023/09/13 03:39:25;;;;;;;40.83;29.50;;;;;;;17.74;100.00;99977.66;5116972;28;20039;-81
2023/09/13 03:41:50;;;;;;;41.97;28.92;;;;;;;17.74;100.00;99971.88;5115173;28;20035;-81
2023/09/13 03:44:18;;;;;;;40.55;28.58;;;;;;;17.80;100.00;99974.66;5097774;28;20496;-80
2023/09/13 03:46:46;;;;;;;42.30;27.30;;;;;;;17.77;100.00;99970.78;5098013;28;20040;-79
2023/09/13 03:49:11;;;;;;;39.65;27.80;;;;;;;17.67;100.00;99960.19;5116135;28;20361;-81
2023/09/13 03:51:36;;;;;;;38.15;27.75;;;;;;;17.76;100.00;99972.13;5115085;28;20035;-80
2023/09/13 03:54:02;;;;;;;40.90;28.83;;;;;;;17.67;100.00;99960.19;5113785;28;20031;-80
2023/09/13 03:56:28;;;;;;;36.83;27.25;;;;;;;17.68;100.00;99961.75;5097659;28;20035;-80
2023/09/13 03:58:55;;;;;;;36.03;27.35;;;;;;;17.63;100.00;99966.31;5115096;28;20055;-81
2023/09/13 04:01:22;;;;;;;37.58;28.33;;;;;;;17.62;100.00;99964.75;5116399;27;20434;-81
2023/09/13 04:03:48;;;;;;;41.75;29.58;;;;;;;17.55;100.00;99967.47;5115897;28;20028;-84
2023/09/13 04:06:15;;;;;;;41.50;28.00;;;;;;;17.55;100.00;99965.38;5116263;28;20385;-81
2023/09/13 04:08:41;;;;;;;40.33;30.02;;;;;;;17.57;100.00;99967.72;5097847;28;20043;-82
2023/09/13 04:11:07;;;;;;;38.78;27.00;;;;;;;17.52;100.00;99952.03;5115910;28;20027;-80
2023/09/13 04:13:34;;;;;;;38.38;28.80;;;;;;;17.57;100.00;99968.50;5097805;28;20358;-81
2023/09/13 04:16:02;;;;;;;43.88;29.52;;;;;;;17.55;100.00;99970.38;5116003;28;20039;-81
2023/09/13 04:18:29;;;;;;;45.75;31.45;;;;;;;17.50;100.00;99972.00;5097496;28;20085;-81
2023/09/13 04:20:54;;;;;;;47.03;30.08;;;;;;;17.47;100.00;99967.34;5115563;28;20032;-80
2023/09/13 04:23:20;;;;;;;37.08;29.65;;;;;;;17.47;100.00;99967.34;5115716;28;20505;-80
2023/09/13 04:25:48;;;;;;;39.78;29.48;;;;;;;17.53;100.00;99976.72;5114923;28;20046;-81
2023/09/13 04:28:15;;;;;;;39.40;28.73;;;;;;;17.54;100.00;99984.03;5115577;28;20023;-80
2023/09/13 04:30:41;;;;;;;45.60;29.63;;;;;;;17.50;100.00;99974.13;5114687;28;20024;-80
2023/09/13 04:33:08;;;;;;;41.70;29.55;;;;;;;17.46;100.00;99965.00;5113042;28;20043;-79
2023/09/13 04:35:34;;;;;;;42.10;29.02;;;;;;;17.57;100.00;99982.94;5115353;28;20063;-80
2023/09/13 04:38:00;;;;;;;38.22;28.92;;;;;;;17.58;100.00;99975.84;5113747;28;20039;-81
2023/09/13 04:40:26;;;;;;;41.00;28.52;;;;;;;17.63;100.00;99979.97;5114990;28;20046;-80
2023/09/13 04:43:17;;;;;;;37.60;28.45;;;;;;;17.69;100.00;99984.31;5113438;28;20062;-80
2023/09/13 04:45:44;;;;;;;37.90;27.80;;;;;;;17.60;100.00;99960.81;5104385;28;20035;-80
2023/09/13 04:48:11;;;;;;;39.05;28.40;;;;;;;17.69;100.00;99969.84;5093558;28;20024;-82
2023/09/13 04:50:38;;;;;;;39.63;28.73;;;;;;;17.78;100.00;99983.88;5093302;28;20016;-81
2023/09/13 04:53:07;;;;;;;39.63;28.15;;;;;;;17.79;100.00;99964.44;5091660;28;20126;-83
2023/09/13 04:55:34;;;;;;;39.80;28.90;;;;;;;17.81;100.00;99977.03;5094605;28;20020;-82
2023/09/13 04:57:59;;;;;;;38.30;27.75;;;;;;;17.88;100.00;99981.38;5076269;28;20020;-80
2023/09/13 05:00:26;;;;;;;39.35;28.05;;;;;;;17.90;100.00;99981.59;5094766;28;20047;-84
2023/09/13 05:02:52;;;;;;;37.47;28.38;;;;;;;17.92;100.00;99978.94;5092907;28;20392;-81
2023/09/13 05:05:26;;;;;;;37.03;28.23;;;;;;;17.84;100.00;99984.56;5093105;28;20461;-77
2023/09/13 05:07:54;;;;;;;43.20;27.60;;;;;;;17.81;100.00;99991.47;5075932;28;20027;-78
2023/09/13 05:10:20;;;;;;;37.60;28.00;;;;;;;17.83;100.00;99985.91;5093051;28;20500;-77
2023/09/13 05:12:48;;;;;;;38.58;27.65;;;;;;;17.87;100.00;99990.59;5093055;28;20032;-78
2023/09/13 05:15:14;;;;;;;35.65;25.88;;;;;;;17.94;100.00;99984.16;5095573;28;20016;-77
2023/09/13 05:17:42;;;;;;;38.38;26.10;;;;;;;18.05;100.00;99981.06;5094373;28;20473;-76
2023/09/13 05:20:08;;;;;;;41.88;27.42;;;;;;;18.10;100.00;99980.97;5095137;28;20519;-76
2023/09/13 05:22:48;;;;;;;35.13;26.92;;;;;;;18.24;100.00;99994.13;5075727;28;20059;-76
2023/09/13 05:25:15;;;;;;;36.17;25.55;;;;;;;18.14;100.00;99977.75;5093616;28;20370;-76
2023/09/13 05:27:41;;;;;;;36.22;25.83;;;;;;;18.31;100.00;99989.03;5092421;28;20418;-74
2023/09/13 05:30:07;;;;;;;36.53;25.30;;;;;;;18.37;100.00;99987.59;5092437;28;20027;-75
2023/09/13 05:32:33;;;;;;;36.70;25.10;;;;;;;18.50;100.00;99992.59;5094928;28;20032;-75
2023/09/13 05:35:01;;;;;;;37.13;25.38;;;;;;;18.64;100.00;99985.47;5094218;28;20358;-78
2023/09/13 05:37:27;;;;;;;31.70;24.95;;;;;;;18.76;100.00;99989.72;5094133;28;20100;-78
2023/09/13 05:39:54;;;;;;;35.65;25.88;;;;;;;18.88;100.00;99985.22;5093631;28;20128;-77
2023/09/13 05:42:21;;;;;;;33.03;24.35;;;;;;;18.90;100.00;99985.47;5093781;28;20031;-79
2023/09/13 05:44:47;;;;;;;36.08;23.60;;;;;;;19.04;100.00;99992.78;5093460;28;20051;-77
2023/09/13 05:47:15;;;;;;;31.48;24.70;;;;;;;19.00;100.00;99989.44;5093583;28;20046;-78
2023/09/13 05:49:41;;;;;;;30.23;24.00;;;;;;;19.01;100.00;99990.22;5093828;28;20028;-78
2023/09/13 05:52:06;;;;;;;37.47;25.17;;;;;;;19.09;100.00;99988.19;5093786;28;20036;-77
2023/09/13 05:54:32;;;;;;;41.75;22.80;;;;;;;19.32;100.00;99986.38;5091295;28;20062;-78
2023/09/13 05:57:23;;;;;;;31.27;22.55;;;;;;;19.55;100.00;99980.84;5092355;28;20024;-80
2023/09/13 05:59:51;;;;;;;36.17;22.10;;;;;;;19.75;100.00;99982.19;5093620;28;20016;-80
2023/09/13 06:02:18;;;;;;;28.25;22.05;;;;;;;19.88;100.00;99985.03;5092549;28;20055;-81
2023/09/13 06:04:44;;;;;;;29.42;20.85;;;;;;;20.03;100.00;99987.31;5091167;28;20061;-81
2023/09/13 06:07:15;;;;;;;29.25;21.65;;;;;;;20.17;100.00;99969.25;5092901;28;20044;-80
2023/09/13 06:09:42;;;;;;;29.73;21.52;;;;;;;20.25;100.00;99972.97;5092101;28;20036;-80
2023/09/13 06:12:13;;;;;;;23.52;18.60;;;;;;;20.66;100.00;99977.09;5093277;28;20032;-81
2023/09/13 06:14:55;;;;;;;26.95;17.70;;;;;;;21.24;100.00;99961.91;5092982;28;20028;-79
2023/09/13 06:17:26;;;;;;;25.77;17.10;;;;;;;21.97;100.00;99957.41;5096992;28;20087;-80
2023/09/13 06:19:52;;;;;;;22.55;16.17;;;;;;;22.71;100.00;99957.91;5096851;28;20114;-80
2023/09/13 06:22:18;;;;;;;22.42;16.92;;;;;;;23.38;100.00;99946.56;5096407;28;20455;-82
2023/09/13 06:24:45;;;;;;;17.38;15.57;;;;;;;24.07;100.00;99944.72;5094740;28;20036;-80
2023/09/13 06:27:16;;;;;;;20.63;15.75;;;;;;;24.76;100.00;99936.06;5094616;28;20420;-81
2023/09/13 06:30:04;;;;;;;;;;;;;;;25.23;100.00;99920.28;5095368;28;20032;-80
2023/09/13 06:32:38;;;;;;;18.70;15.10;;;;;;;25.84;100.00;99920.16;5096163;28;20391;-80
2023/09/13 06:35:04;;;;;;;24.25;15.70;;;;;;;26.41;100.00;99918.81;5096308;28;20295;-81
2023/09/13 06:37:35;;;;;;;18.80;14.57;;;;;;;26.70;100.00;99916.66;5096619;28;20508;-79
2023/09/13 06:40:02;;;;;;;;;;;;;;;27.28;100.00;99919.56;5096896;28;20024;-81
2023/09/13 06:42:28;;;;;;;19.33;15.10;;;;;;;27.98;100.00;99929.13;5096325;28;19914;-80
2023/09/13 06:44:54;;;;;;;22.20;14.80;;;;;;;28.32;100.00;99908.03;5094901;28;20142;-81
2023/09/13 06:47:38;;;;;;;21.92;14.98;;;;;;;29.13;100.00;99915.78;5094522;28;20059;-80
2023/09/13 06:50:10;;;;;;;18.50;14.30;;;;;;;29.87;100.00;99922.13;5096012;28;20024;-80
2023/09/13 06:52:38;;;;;;;22.58;14.20;;;;;;;30.52;100.00;99921.81;5096749;28;20534;-81
2023/09/13 06:55:04;;;;;;;24.58;13.75;;;;;;;30.81;100.00;99911.78;5097146;28;20028;-81
2023/09/13 06:57:33;;;;;;;18.65;12.77;;;;;;;31.13;100.00;99907.00;5095737;28;20046;-81
2023/09/13 07:00:00;;;;;;;17.50;11.88;;;;;;;31.51;100.00;99917.31;5096938;28;20028;-80
2023/09/13 07:02:27;;;;;;;21.13;12.00;;;;;;;31.74;100.00;99909.13;5097086;28;20027;-81
2023/09/13 07:04:55;;;;;;;21.30;11.95;;;;;;;32.29;100.00;99917.28;5095051;28;20044;-82
2023/09/13 07:07:22;;;;;;;21.38;11.57;;;;;;;32.82;100.00;99921.63;5096801;28;20089;-81
2023/09/13 07:09:48;;;;;;;21.98;11.23;;;;;;;33.31;100.00;99915.22;5096719;28;20028;-82
2023/09/13 07:12:14;;;;;;;16.58;10.60;;;;;;;33.72;100.00;99915.78;5096675;28;20369;-82
2023/09/13 07:14:40;;;;;;;15.30;10.75;;;;;;;33.96;92.48;99916.19;5096190;28;20021;-81
2023/09/13 07:17:06;;;;;;;15.43;10.30;;;;;;;34.14;92.56;99920.03;5094976;28;20024;-81
2023/09/13 07:19:31;;;;;;;15.40;10.35;;;;;;;34.37;92.92;99915.88;5094814;28;20043;-82
2023/09/13 07:22:00;;;;;;;12.80;9.95;;;;;;;34.55;85.50;99916.69;5094965;28;20036;-82
2023/09/13 07:24:26;;;;;;;18.27;10.18;;;;;;;34.64;88.61;99911.91;5078234;28;20481;-82
2023/09/13 07:26:52;;;;;;;15.68;10.65;;;;;;;34.90;85.30;99924.19;5095455;28;20038;-81
2023/09/13 07:29:18;;;;;;;13.93;10.07;;;;;;;35.06;79.05;99921.88;5077711;28;20126;-82
2023/09/13 07:31:43;;;;;;;21.63;10.60;;;;;;;35.05;78.99;99933.03;5096216;28;20534;-81
2023/09/13 07:34:10;;;;;;;13.15;9.18;;;;;;;34.88;83.48;99942.66;5078088;28;20036;-82
2023/09/13 07:36:36;;;;;;;17.27;9.55;;;;;;;34.91;84.01;99937.56;5095895;28;20046;-82
2023/09/13 07:39:03;;;;;;;17.00;10.30;;;;;;;34.65;81.07;99932.03;5095799;28;20032;-82
2023/09/13 07:41:29;;;;;;;17.73;9.77;;;;;;;34.75;85.19;99934.69;5095561;28;20073;-82
2023/09/13 07:43:56;;;;;;;13.98;10.10;;;;;;;34.98;82.48;99939.38;5077207;28;20044;-81
2023/09/13 07:46:24;;;;;;;19.17;10.55;;;;;;;35.02;80.35;99940.31;5094381;28;20480;-81
2023/09/13 07:48:50;;;;;;;15.02;9.65;;;;;;;34.96;75.07;99927.38;5096159;28;20024;-82
2023/09/13 07:51:16;;;;;;;10.65;9.27;;;;;;;35.11;78.74;99930.31;5095996;28;20067;-81
2023/09/13 07:53:43;;;;;;;20.58;9.90;;;;;;;35.40;82.15;99934.50;5095451;28;20024;-81
2023/09/13 07:56:09;;;;;;;13.00;8.63;;;;;;;35.85;78.09;99928.91;5094414;28;20024;-81
2023/09/13 07:58:35;;;;;;;18.48;9.40;;;;;;;35.89;72.84;99920.13;5095648;28;20107;-78
2023/09/13 08:01:01;;;;;;;12.35;8.63;;;;;;;36.12;76.46;99921.81;5107096;28;20058;-80
2023/09/13 08:03:26;;;;;;;13.27;9.18;;;;;;;36.50;70.46;99924.72;5116089;28;20027;-80
2023/09/13 08:05:52;;;;;;;13.50;8.57;;;;;;;36.82;71.85;99926.66;5097550;28;20396;-79
2023/09/13 08:08:22;;;;;;;12.43;8.77;;;;;;;37.03;67.70;99922.19;5115038;28;20027;-79
2023/09/13 08:10:52;;;;;;;12.93;8.13;;;;;;;37.11;64.96;99921.72;5114640;28;20045;-80
2023/09/13 08:13:21;;;;;;;21.75;9.48;;;;;;;37.16;59.40;99912.22;5114446;28;20062;-78
2023/09/13 08:15:47;;;;;;;13.52;9.20;;;;;;;37.25;65.23;99919.19;5114200;28;20024;-77
2023/09/13 08:18:13;;;;;;;9.98;9.00;;;;;;;37.22;61.54;99914.63;5114181;28;20059;-78
2023/09/13 08:20:38;;;;;;;18.88;8.88;;;;;;;37.08;63.63;99914.13;5115525;27;20545;-77
2023/09/13 08:23:04;;;;;;;15.77;9.15;;;;;;;36.97;59.75;99919.00;5115343;28;20456;-77
2023/09/13 08:25:29;;;;;;;11.63;8.50;;;;;;;36.83;60.26;99918.50;5115388;28;20047;-78
2023/09/13 08:27:55;;;;;;;9.85;8.75;;;;;;;36.74;62.30;99914.44;5114917;28;20391;-77
2023/09/13 08:30:21;;;;;;;13.25;8.30;;;;;;;36.76;64.68;99922.69;5115282;27;20039;-77
2023/09/13 08:32:47;;;;;;;16.02;8.68;;;;;;;36.62;58.94;99919.97;5096973;28;20110;-78
2023/09/13 08:35:12;;;;;;;13.45;8.52;;;;;;;36.37;62.63;99924.25;5114919;28;20521;-77
2023/09/13 08:37:38;;;;;;;17.42;9.40;;;;;;;36.23;62.90;99926.72;5114893;28;20110;-78
2023/09/13 08:40:06;;;;;;;18.83;9.65;;;;;;;36.24;66.32;99928.22;5114941;28;20089;-77
2023/09/13 08:42:31;;;;;;;12.68;9.32;;;;;;;36.30;61.14;99928.44;5113935;28;20070;-77
2023/09/13 08:44:59;;;;;;;12.52;8.73;;;;;;;36.12;62.89;99924.03;5096743;28;20071;-78
2023/09/13 08:47:26;;;;;;;14.98;9.25;;;;;;;36.04;64.79;99922.25;5113679;28;20027;-77
2023/09/13 08:49:53;;;;;;;12.75;8.77;;;;;;;36.01;65.83;99926.59;5115164;28;20078;-78
2023/09/13 08:52:20;;;;;;;22.30;10.00;;;;;;;36.08;65.05;99914.94;5114787;28;20388;-77
2023/09/13 08:54:46;;;;;;;12.52;9.07;;;;;;;36.04;66.76;99894.72;5113237;28;20140;-79
2023/09/13 08:57:12;;;;;;;15.13;8.93;;;;;;;36.26;65.15;99904.47;5114797;28;20528;-79
2023/09/13 08:59:38;;;;;;;12.07;8.57;;;;;;;36.12;57.60;99903.94;5096321;28;20124;-79
2023/09/13 09:02:04;;;;;;;10.30;9.07;;;;;;;35.91;61.77;99889.72;5113534;28;20084;-79
2023/09/13 09:04:31;;;;;;;14.85;9.52;;;;;;;35.76;61.95;99891.38;5114522;28;20015;-78
2023/09/13 09:06:57;;;;;;;20.13;10.30;;;;;;;35.71;67.26;99894.88;5096073;28;20061;-78
2023/09/13 09:09:28;;;;;;;14.13;8.90;;;;;;;35.87;68.65;99887.34;5096337;28;20126;-78
2023/09/13 09:11:58;;;;;;;14.57;9.75;;;;;;;35.90;66.76;99894.13;5114455;28;20041;-78
2023/09/13 09:14:24;;;;;;;21.83;8.40;;;;;;;35.86;70.12;99893.97;5113240;28;20019;-79
2023/09/13 09:16:51;;;;;;;17.33;10.13;;;;;;;35.88;69.95;99894.06;5113017;28;20083;-77
2023/09/13 09:19:16;;;;;;;16.60;9.68;;;;;;;35.78;70.62;99896.66;5114668;28;20358;-77
2023/09/13 09:21:42;;;;;;;16.52;9.20;;;;;;;35.65;72.28;99898.38;5112755;28;20476;-78
2023/09/13 09:24:09;;;;;;;15.20;9.95;;;;;;;35.44;67.80;99887.88;5078826;28;20030;-78
2023/09/13 09:26:35;;;;;;;20.63;10.05;;;;;;;34.95;66.67;99881.31;5114072;28;20038;-76
2023/09/13 09:29:14;;;;;;;13.75;9.40;;;;;;;34.36;71.86;99872.81;5114244;28;20376;-78
2023/09/13 09:31:40;;;;;;;12.43;9.70;;;;;;;34.13;76.74;99871.03;5112592;28;20035;-80
2023/09/13 09:34:06;;;;;;;12.65;9.88;;;;;;;34.00;79.56;99880.00;5113827;28;20035;-78
2023/09/13 09:36:42;;;;;;;18.27;9.82;;;;;;;33.89;82.24;99878.78;5096166;28;20033;-78
2023/09/13 09:39:07;;;;;;;14.15;9.43;;;;;;;33.79;83.08;99876.09;5112646;28;20027;-78
2023/09/13 09:41:35;;;;;;;15.32;9.18;;;;;;;33.74;84.45;99877.34;5095972;28;20024;-78
2023/09/13 09:44:01;;;;;;;19.73;11.23;;;;;;;33.58;83.80;99881.69;5113357;28;20082;-81
2023/09/13 09:46:26;;;;;;;21.90;10.73;;;;;;;33.47;86.39;99872.31;5114023;28;20027;-78
2023/09/13 09:48:52;;;;;;;26.67;11.70;;;;;;;33.41;87.59;99871.28;5113751;28;20066;-78
2023/09/13 09:51:17;;;;;;;15.15;10.43;;;;;;;33.48;88.04;99881.97;5118283;28;20387;-78
2023/09/13 09:53:43;;;;;;;14.40;9.18;;;;;;;33.49;87.76;99884.28;5119243;28;20035;-77
2023/09/13 09:56:11;;;;;;;13.55;9.50;;;;;;;33.59;85.85;99886.19;5102242;28;20069;-76
2023/09/13 09:58:36;;;;;;;10.77;8.95;;;;;;;33.71;84.79;99889.78;5120799;28;20436;-78
2023/09/13 10:01:02;;;;;;;13.93;9.73;;;;;;;33.64;82.85;99888.69;5120604;27;20164;-79
2023/09/13 10:03:31;;;;;;;16.73;9.80;;;;;;;33.71;85.58;99890.56;5119409;28;20034;-78
2023/09/13 10:06:10;;;;;;;14.00;9.40;;;;;;;33.58;83.06;99891.34;5120835;27;20108;-78
2023/09/13 10:08:40;;;;;;;17.73;9.63;;;;;;;33.58;87.18;99893.56;5120527;27;20050;-79
2023/09/13 10:11:13;;;;;;;13.02;9.45;;;;;;;33.55;85.98;99886.78;5120794;27;20040;-78
2023/09/13 10:13:44;;;;;;;13.05;10.65;;;;;;;33.35;85.47;99889.53;5119194;28;20034;-80
2023/09/13 10:16:13;;;;;;;13.43;9.45;;;;;;;33.19;87.33;99893.88;5120746;27;20027;-80
2023/09/13 10:18:41;;;;;;;15.35;10.05;;;;;;;33.26;89.71;99892.75;5120680;27;20039;-79
2023/09/13 10:21:08;;;;;;;14.27;9.52;;;;;;;33.27;89.15;99882.44;5120590;27;20031;-82
2023/09/13 10:23:42;;;;;;;13.70;8.85;;;;;;;33.23;89.07;99888.16;5119208;28;20028;-81
2023/09/13 10:26:10;;;;;;;13.05;9.20;;;;;;;33.15;87.37;99890.69;5120377;27;20099;-80
2023/09/13 10:28:39;;;;;;;11.98;9.43;;;;;;;33.01;90.03;99887.78;5120940;28;20465;-81
2023/09/13 10:31:17;;;;;;;15.55;9.98;;;;;;;32.80;87.17;99883.03;5120555;27;20030;-81
2023/09/13 10:33:52;;;;;;;14.43;9.57;;;;;;;32.73;91.46;99887.13;5119319;28;20051;-82
2023/09/13 10:36:38;;;;;;;12.95;9.93;;;;;;;32.73;90.42;99889.31;5119433;28;20063;-78
2023/09/13 10:39:14;;;;;;;16.27;10.30;;;;;;;32.60;89.26;99888.63;5121104;27;20027;-79
2023/09/13 10:41:51;;;;;;;14.80;8.98;;;;;;;32.57;91.89;99877.38;5119421;28;20027;-78
2023/09/13 10:44:17;;;;;;;16.95;9.07;;;;;;;32.57;91.57;99877.38;5119085;28;20059;-77
2023/09/13 10:46:46;;;;;;;19.17;8.82;;;;;;;32.63;91.21;99877.69;5119122;28;20034;-79
2023/09/13 10:49:12;;;;;;;15.52;9.40;;;;;;;32.62;87.85;99873.97;5101892;28;20031;-79
2023/09/13 10:51:40;;;;;;;11.63;9.32;;;;;;;32.47;88.76;99876.84;5120341;27;20034;-81
2023/09/13 10:54:08;;;;;;;15.85;9.60;;;;;;;32.37;90.48;99877.06;5120742;27;20078;-80
2023/09/13 10:56:35;;;;;;;12.85;10.00;;;;;;;32.31;91.28;99864.13;5119297;28;20030;-80
2023/09/13 10:59:01;;;;;;;13.55;10.10;;;;;;;32.29;94.73;99864.03;5120272;27;20465;-79
2023/09/13 11:01:30;;;;;;;18.20;10.20;;;;;;;32.24;91.32;99871.94;5119263;27;20038;-79
2023/09/13 11:03:55;;;;;;;16.25;9.38;;;;;;;32.16;92.29;99874.41;5116321;28;20035;-79
2023/09/13 11:06:22;;;;;;;13.27;9.02;;;;;;;32.10;89.69;99885.91;5116273;28;20043;-78
2023/09/13 11:08:48;;;;;;;18.08;9.82;;;;;;;32.00;92.96;99879.44;5115866;28;20027;-78
2023/09/13 11:11:17;;;;;;;11.90;9.27;;;;;;;31.89;93.61;99863.38;5098863;28;20047;-77
2023/09/13 11:13:44;;;;;;;16.92;9.80;;;;;;;31.94;94.41;99882.88;5117056;27;20095;-78
2023/09/13 11:16:13;;;;;;;10.25;8.95;;;;;;;31.73;96.45;99875.06;5116492;28;20024;-77
2023/09/13 11:18:48;;;;;;;19.90;9.48;;;;;;;31.65;94.70;99873.81;5116497;28;20107;-78